Latest Weather Observations for Port Lincoln Airport

IDS60801

Issued at 7:05 am CST Saturday 23 August 2014 (issued every 30 minutes, with the page automatically refreshed every 10 minutes)

About weather observations | Map of weather stations | Latest weather observations for SA | Other Formats
Station Details ID: 018192 Name: PORT LINCOLN AWS Lat: -34.60 Lon: 135.88 Height: 8.5 m
Data from the previous 72 hours. | See also: Recent months at Port Lincoln Airport
Date/Time
CST
Temp
°C
App
Temp
°C
Dew
Point
Rel
Hum
%
Delta-T
°C
Wind Press
QNH
hPa
Press
MSL
hPa
Rain
since 9 am
mm
Dir
 
Spd
km/h
Gust
km/h
Spd
kts
Gust
kts
23/07:00am 12.6 9.1 10.1 85 1.3 W 19 24 10 13 1022.5 1022.5 0.0
23/06:30am 13.2 10.3 11.1 87 1.1 WSW 17 22 9 12 1022.0 1022.0 0.0
23/06:00am 13.6 11.4 12.0 90 0.9 W 15 20 8 11 1021.3 1021.3 0.0
23/05:30am 13.8 12.0 12.0 89 1.0 WNW 13 19 7 10 1020.7 1020.7 0.0
23/05:00am 13.5 12.0 11.9 90 0.9 W 11 13 6 7 1020.4 1020.4 0.0
23/04:30am 13.7 12.0 12.3 91 0.8 W 13 17 7 9 1020.2 1020.2 0.0
23/04:23am 13.8 11.7 12.4 91 0.8 WSW 15 26 8 14 1020.1 1020.1 0.0
23/04:13am 13.9 10.8 12.3 90 0.9 WSW 20 28 11 15 1020.0 1020.0 0.0
23/04:05am 14.2 11.2 12.6 90 0.9 SW 20 26 11 14 1020.0 1020.0 0.0
23/04:00am 13.7 11.6 12.3 91 0.8 W 15 19 8 10 1020.1 1020.1 0.0
23/03:30am 11.9 8.5 7.8 76 2.0 NW 15 17 8 9 1019.6 1019.6 0.0
23/03:00am 11.6 7.9 6.1 69 2.6 NW 15 19 8 10 1019.5 1019.5 0.0
23/02:30am 12.6 9.1 5.5 62 3.3 NW 13 20 7 11 1019.5 1019.5 0.0
23/02:00am 14.8 9.9 5.1 52 4.6 N 20 28 11 15 1018.9 1018.9 0.0
23/01:30am 15.5 9.0 4.5 48 5.1 NW 28 35 15 19 1019.1 1019.1 0.0
23/01:00am 16.9 11.3 3.6 41 6.2 NNW 22 35 12 19 1018.9 1018.9 0.0
23/12:30am 17.6 10.9 3.5 39 6.5 N 28 35 15 19 1018.5 1018.5 0.0
23/12:00am 18.4 10.8 3.1 36 7.1 N 32 44 17 24 1018.6 1018.6 0.0
 
Date/Time
CST
Temp
°C
App
Temp
°C
Dew
Point
Rel
Hum
%
Delta-T
°C
Wind Press
QNH
hPa
Press
MSL
hPa
Rain
since 9 am
mm
Dir
 
Spd
km/h
Gust
km/h
Spd
kts
Gust
kts
22/11:30pm 18.4 10.8 3.1 36 7.1 N 32 44 17 24 1018.6 1018.6 0.0
22/11:00pm 18.6 10.8 2.9 35 7.3 N 33 43 18 23 1018.7 1018.7 0.0
22/10:30pm 17.5 11.8 4.8 43 6.0 N 24 35 13 19 1019.2 1019.2 0.0
22/10:24pm 17.6 12.1 4.2 41 6.3 N 22 33 12 18 1019.2 1019.2 0.0
22/10:00pm 12.6 10.8 7.9 73 2.3 ENE 7 11 4 6 1019.7 1019.7 0.0
22/09:30pm 12.6 11.4 9.6 82 1.5 NNE 6 9 3 5 1019.8 1019.8 0.0
22/09:00pm 12.4 12.4 9.8 84 1.3 CALM 0 0 0 0 1019.7 1019.7 0.0
22/08:30pm 12.5 11.4 9.9 84 1.3 N 6 9 3 5 1019.7 1019.7 0.0
22/08:00pm 12.3 11.9 9.7 84 1.3 NNE 2 7 1 4 1019.6 1019.6 0.0
22/07:30pm 11.6 10.3 9.2 85 1.2 N 6 11 3 6 1019.7 1019.7 0.0
22/07:00pm 11.6 9.7 9.2 85 1.2 NNE 9 13 5 7 1019.4 1019.4 0.0
22/06:30pm 12.7 9.8 9.7 82 1.5 NNE 15 17 8 9 1019.3 1019.3 0.0
22/06:00pm 13.6 10.0 10.0 79 1.9 NE 19 22 10 12 1019.1 1019.1 0.0
22/05:30pm 14.8 11.3 10.2 74 2.4 NE 19 24 10 13 1019.2 1019.2 0.0
22/05:00pm 15.7 11.2 10.2 70 2.9 NE 24 30 13 16 1019.0 1019.0 0.0
22/04:30pm 16.3 12.3 10.4 68 3.1 NE 22 32 12 17 1018.9 1018.9 0.0
22/04:00pm 17.0 11.8 10.1 64 3.6 NE 28 37 15 20 1019.0 1019.0 0.0
22/03:30pm 17.3 12.7 11.1 67 3.3 NE 26 35 14 19 1019.1 1019.1 0.0
22/03:00pm 17.5 12.9 11.1 66 3.4 ENE 26 33 14 18 1019.2 1019.2 0.0
22/02:30pm 19.1 15.3 9.9 55 4.9 NE 20 26 11 14 1019.4 1019.4 0.0
22/02:00pm 21.6 15.4 6.3 37 7.7 N 28 37 15 20 1019.7 1019.7 0.0
22/01:30pm 21.4 15.4 6.9 39 7.4 N 28 37 15 20 1020.0 1020.0 0.0
22/01:00pm 21.1 15.0 6.6 39 7.3 N 28 39 15 21 1020.6 1020.6 0.0
22/12:30pm 21.1 15.3 8.0 43 6.8 N 28 41 15 22 1021.0 1021.0 0.0
22/12:00pm 20.1 14.3 7.8 45 6.3 NNE 28 35 15 19 1021.7 1021.7 0.0
22/11:30am 19.2 14.0 7.3 46 6.0 NNE 24 33 13 18 1022.2 1022.2 0.0
22/11:00am 19.1 14.5 8.1 49 5.7 NNE 22 30 12 16 1022.7 1022.7 0.0
22/10:30am 17.8 14.2 9.7 59 4.2 NNE 19 24 10 13 1023.1 1023.1 0.0
22/10:00am 15.6 14.6 10.4 71 2.7 E 6 11 3 6 1023.5 1023.5 0.0
22/09:30am 13.0 12.2 8.3 73 2.3 NNW 2 7 1 4 1023.8 1023.8 0.0
22/09:00am 11.6 9.2 8.5 81 1.5 ENE 11 13 6 7 1023.7 1023.7 0.0
22/08:30am 10.3 8.2 6.8 79 1.6 N 7 9 4 5 1023.7 1023.7 0.0
22/08:00am 8.8 8.2 7.4 91 0.7 CALM 0 0 0 0 1023.6 1023.6 0.0
22/07:30am 6.1 4.5 4.6 90 0.6 N 2 6 1 3 1023.3 1023.3 0.0
22/07:00am 4.7 2.2 3.5 92 0.5 N 6 7 3 4 1022.9 1022.9 0.0
22/06:30am 4.1 1.2 2.6 90 0.6 NNW 7 9 4 5 1022.8 1022.8 0.0
22/06:00am 5.7 3.6 3.7 87 0.8 N 4 7 2 4 1022.5 1022.5 0.0
22/05:30am 4.8 2.2 3.0 88 0.7 NW 6 11 3 6 1022.4 1022.4 0.0
22/05:00am 5.9 4.6 3.9 87 0.8 CALM 0 6 0 3 1022.2 1022.2 0.0
22/04:30am 8.3 6.0 5.9 85 1.1 N 7 9 4 5 1022.1 1022.1 0.0
22/04:00am 6.3 4.6 4.0 85 1.0 N 2 6 1 3 1022.0 1022.0 0.0
22/03:30am 7.5 5.0 5.0 84 1.1 N 7 9 4 5 1022.0 1022.0 0.0
22/03:00am 5.9 4.6 4.2 89 0.7 CALM 0 0 0 0 1022.1 1022.1 0.0
22/02:30am 5.4 3.6 3.4 87 0.8 N 2 6 1 3 1022.6 1022.6 0.0
22/02:00am 7.5 5.0 4.6 82 1.3 N 7 11 4 6 1022.8 1022.8 0.0
22/01:30am 8.4 6.1 5.9 84 1.1 N 7 9 4 5 1023.1 1023.1 0.0
22/01:00am 8.7 7.5 6.5 86 1.0 N 2 6 1 3 1023.2 1023.2 0.0
22/12:30am 9.1 7.1 7.1 87 0.9 N 7 9 4 5 1023.3 1023.3 0.0
22/12:00am 10.3 7.1 8.6 89 0.8 NNE 15 19 8 10 1023.3 1023.3 0.0
 
Date/Time
CST
Temp
°C
App
Temp
°C
Dew
Point
Rel
Hum
%
Delta-T
°C
Wind Press
QNH
hPa
Press
MSL
hPa
Rain
since 9 am
mm
Dir
 
Spd
km/h
Gust
km/h
Spd
kts
Gust
kts
21/11:30pm 9.9 6.3 8.5 91 0.7 NNE 17 19 9 10 1023.6 1023.6 0.0
21/11:00pm 10.1 6.6 8.7 91 0.7 NNE 17 19 9 10 1023.7 1023.7 0.0
21/10:30pm 9.6 5.8 7.7 88 0.9 NNE 17 19 9 10 1024.0 1024.0 0.0
21/10:00pm 9.9 6.2 7.8 87 1.0 NE 17 20 9 11 1024.0 1024.0 0.0
21/09:30pm 8.8 5.8 7.9 94 0.4 NE 13 17 7 9 1024.1 1024.1 0.0
21/09:00pm 7.9 6.5 7.3 96 0.3 ESE 4 9 2 5 1024.0 1024.0 0.0
21/08:30pm 7.7 7.0 7.0 95 0.3 CALM 0 0 0 0 1023.8 1023.8 0.0
21/08:00pm 7.6 6.8 6.7 94 0.4 CALM 0 0 0 0 1023.7 1023.7 0.0
21/07:30pm 9.2 8.1 8.3 94 0.4 W 4 7 2 4 1023.6 1023.6 0.0
21/07:00pm 9.9 9.6 8.5 91 0.7 CALM 0 0 0 0 1023.3 1023.3 0.0
21/06:30pm 11.3 9.5 9.6 89 0.9 SE 9 11 5 6 1023.1 1023.1 0.0
21/06:00pm 11.9 10.6 10.0 88 1.0 SE 7 9 4 5 1023.0 1023.0 0.0
21/05:30pm 13.3 11.7 10.1 81 1.6 E 9 11 5 6 1022.8 1022.8 0.0
21/05:00pm 14.2 12.3 10.6 79 1.9 ENE 11 17 6 9 1022.7 1022.7 0.0
21/04:30pm 14.5 11.9 10.7 78 2.0 E 15 19 8 10 1022.4 1022.4 0.0
21/04:00pm 14.7 12.0 10.5 76 2.2 E 15 19 8 10 1022.4 1022.4 0.0
21/03:30pm 15.3 12.9 11.5 78 2.0 E 15 19 8 10 1022.4 1022.4 0.0
21/03:00pm 15.0 12.0 10.6 75 2.3 E 17 20 9 11 1022.5 1022.5 0.0
21/02:30pm 15.3 13.1 10.7 74 2.4 E 13 19 7 10 1022.7 1022.7 0.0
21/02:00pm 15.4 12.3 10.4 72 2.6 ENE 17 22 9 12 1022.8 1022.8 0.0
21/01:30pm 14.3 9.8 10.1 76 2.2 ENE 24 30 13 16 1022.9 1022.9 0.0
21/01:00pm 15.2 10.7 10.0 71 2.7 ENE 24 28 13 15 1023.4 1023.4 0.0
21/12:30pm 15.0 10.5 10.2 73 2.5 ENE 24 28 13 15 1023.9 1023.9 0.0
21/12:00pm 15.1 11.4 10.3 73 2.5 ENE 20 26 11 14 1024.6 1024.6 0.0
21/11:30am 14.3 10.5 9.7 74 2.4 ENE 20 24 11 13 1025.0 1025.0 0.0
21/11:00am 13.9 10.0 9.5 75 2.3 ENE 20 24 11 13 1025.1 1025.1 0.0
21/10:30am 13.4 9.7 9.5 77 2.0 ENE 19 26 10 14 1025.3 1025.3 0.0
21/10:00am 13.2 10.0 10.0 81 1.6 ENE 17 22 9 12 1025.5 1025.5 0.0
21/09:30am 12.6 9.9 9.1 79 1.8 NE 13 24 7 13 1025.7 1025.7 0.0
21/09:00am 11.9 9.6 8.9 82 1.5 NNE 11 15 6 8 1025.9 1025.9 0.0
21/08:30am 11.1 10.7 8.1 82 1.5 CALM 0 6 0 3 1025.8 1025.8 0.0
21/08:00am 9.4 8.2 8.0 91 0.7 NNE 4 9 2 5 1025.7 1025.7 0.0
21/07:30am 6.3 5.3 5.4 94 0.4 CALM 0 0 0 0 1025.6 1025.6 0.0
21/07:00am 5.2 3.9 4.0 92 0.5 CALM 0 0 0 0 1025.5 1025.5 0.0
21/06:30am 6.4 5.4 5.5 94 0.4 CALM 0 6 0 3 1025.3 1025.3 0.0
21/06:00am 6.0 4.8 4.6 91 0.6 CALM 0 0 0 0 1025.2 1025.2 0.0
21/05:30am 7.1 6.2 5.9 92 0.5 CALM 0 6 0 3 1025.2 1025.2 0.0
21/05:00am 6.9 5.5 5.5 91 0.6 NNE 2 9 1 5 1025.2 1025.2 0.0
21/04:30am 7.2 5.9 6.0 92 0.5 NE 2 7 1 4 1025.2 1025.2 0.0
21/04:00am 7.0 5.7 5.9 93 0.5 NE 2 6 1 3 1025.3 1025.3 0.0
21/03:30am 6.5 5.5 5.5 93 0.4 CALM 0 6 0 3 1025.5 1025.5 0.0
21/03:00am 6.2 4.4 5.2 93 0.4 N 4 7 2 4 1025.6 1025.6 0.0
21/02:30am 5.0 2.3 3.8 92 0.5 NNW 7 7 4 4 1025.9 1025.9 0.0
21/02:00am 5.1 3.4 4.2 94 0.4 NNW 2 9 1 5 1026.0 1026.0 0.0
21/01:30am 5.8 4.5 4.3 90 0.6 CALM 0 6 0 3 1026.2 1026.2 0.0
21/01:00am 8.1 6.4 5.7 85 1.1 NNE 4 7 2 4 1026.4 1026.4 0.0
21/12:30am 9.5 5.9 6.6 82 1.3 ENE 15 20 8 11 1026.4 1026.4 0.0
21/12:00am 10.6 6.1 6.9 78 1.7 ENE 20 28 11 15 1026.4 1026.4 0.0
 
Date/Time
CST
Temp
°C
App
Temp
°C
Dew
Point
Rel
Hum
%
Delta-T
°C
Wind Press
QNH
hPa
Press
MSL
hPa
Rain
since 9 am
mm
Dir
 
Spd
km/h
Gust
km/h
Spd
kts
Gust
kts
20/11:30pm 10.4 6.5 7.1 80 1.6 ENE 17 22 9 12 1026.5 1026.5 0.0
20/11:00pm 10.4 6.1 7.1 80 1.6 ENE 19 22 10 12 1026.6 1026.6 0.0
20/10:30pm 10.7 6.1 6.6 76 1.9 ENE 20 26 11 14 1026.8 1026.8 0.0
20/10:00pm 10.8 6.4 6.4 74 2.1 E 19 26 10 14 1026.8 1026.8 0.0
20/09:30pm 10.6 6.2 6.4 75 2.0 E 19 24 10 13 1026.8 1026.8 0.0
20/09:00pm 11.1 6.6 7.0 76 1.9 E 20 30 11 16 1026.8 1026.8 0.0
20/08:30pm 10.5 6.5 6.6 77 1.8 E 17 22 9 12 1026.7 1026.7 0.0
20/08:00pm 9.8 5.9 5.2 73 2.1 E 15 19 8 10 1026.4 1026.4 0.0
20/07:30pm 7.7 4.3 3.9 77 1.6 ESE 11 13 6 7 1026.3 1026.3 0.0
20/07:00pm 9.1 5.9 4.9 75 1.9 E 11 13 6 7 1026.1 1026.1 0.0
20/06:30pm 9.4 5.4 5.0 74 2.0 ESE 15 19 8 10 1025.8 1025.8 0.0
20/06:00pm 10.2 5.9 5.2 71 2.3 ESE 17 20 9 11 1025.7 1025.7 0.0
20/05:30pm 11.8 7.2 5.7 66 2.8 ESE 19 22 10 12 1025.4 1025.4 0.0
20/05:00pm 12.6 7.8 5.8 63 3.2 E 20 24 11 13 1025.4 1025.4 0.0
20/04:30pm 13.3 9.0 6.9 65 3.1 E 19 22 10 12 1025.5 1025.5 0.0
20/04:00pm 13.4 8.8 6.5 63 3.3 E 20 26 11 14 1025.4 1025.4 0.0
20/03:30pm 13.7 9.1 6.3 61 3.5 ENE 20 26 11 14 1025.3 1025.3 0.0
20/03:00pm 13.6 9.6 6.7 63 3.3 NE 17 20 9 11 1025.5 1025.5 0.0
20/02:30pm 12.3 7.7 5.7 64 3.1 ENE 19 24 10 13 1025.7 1025.7 0.0
20/02:00pm 12.8 8.3 6.2 64 3.1 NE 19 24 10 13 1025.8 1025.8 0.0
20/01:30pm 13.1 9.1 6.5 64 3.1 NE 17 20 9 11 1026.0 1026.0 0.0
20/01:00pm 13.1 8.9 5.8 61 3.4 NE 17 22 9 12 1026.5 1026.5 0.0
20/12:30pm 13.2 9.0 5.9 61 3.4 NE 17 26 9 14 1026.9 1026.9 0.0
20/12:00pm 13.8 8.9 4.9 55 4.1 NE 20 26 11 14 1027.3 1027.3 0.0
20/11:30am 13.5 8.3 5.4 58 3.8 NE 22 26 12 14 1027.5 1027.5 0.0
20/11:00am 13.4 8.6 5.8 60 3.6 NE 20 28 11 15 1027.6 1027.6 0.0
20/10:30am 13.0 8.7 5.4 60 3.5 NE 17 24 9 13 1027.7 1027.7 0.0
20/10:10am 12.7 7.9 5.4 61 3.4 NE 20 24 11 13 1027.8 1027.8 0.0
20/10:00am 12.7 8.4 5.1 60 3.5 NE 17 20 9 11 1027.8 1027.8 0.0
20/09:58am 12.7 8.3 4.9 59 3.6 NE 17 20 9 11 1027.8 1027.8 0.0
20/09:30am 12.4 8.4 5.1 61 3.3 NE 15 20 8 11 1027.8 1027.8 0.0
20/09:00am 11.8 7.1 5.0 63 3.1 E 19 28 10 15 1027.8 1027.8 0.0
20/08:30am 11.6 7.3 5.3 65 2.9 NE 17 20 9 11 1027.5 1027.5 0.0
20/08:00am 11.6 6.2 4.6 62 3.2 ENE 22 28 12 15 1027.2 1027.2 0.0
20/07:30am 11.4 6.6 4.6 63 3.1 ENE 19 24 10 13 1026.7 1026.7 0.0

Other Formats:

Comma delimited format used in spreadsheet applications
http://www.bom.gov.au/fwo/IDS60801/IDS60801.95661.axf

JavaScript Object Notation format (JSON) in row-major order
http://www.bom.gov.au/fwo/IDS60801/IDS60801.95661.json